Time;durP1;ratioP1;P1;durP2;ratioP2;P2;SDS_P1;SDS_P2;PMS_P1;PMS_P2;Temp;Humidity;BMP_temperature;BMP_pressure;BME280_temperature;BME280_humidity;BME280_pressure;Samples;Min_cycle;Max_cycle;Signal;HPM_P1;HPM_P2
2021/10/01 00:01:03;;;;;;;0.40;0.40;;;;;;;5.37;84.05;101615.97;5029480;28;20390;-71
2021/10/01 00:03:28;;;;;;;0.40;0.40;;;;;;;5.34;84.27;101616.16;5029500;28;20068;-70
2021/10/01 00:05:54;;;;;;;0.40;0.40;;;;;;;5.34;84.29;101621.50;5029398;28;20136;-71
2021/10/01 00:08:20;;;;;;;0.40;0.40;;;;;;;5.32;84.02;101623.38;5030384;28;20148;-71
2021/10/01 00:10:45;;;;;;;0.40;0.40;;;;;;;5.28;84.22;101611.06;5032230;28;20184;-70
2021/10/01 00:13:11;;;;;;;0.40;0.40;;;;;;;5.31;84.48;101618.97;5016277;28;20076;-72
2021/10/01 00:15:37;;;;;;;0.40;0.40;;;;;;;5.36;84.35;101608.88;5033519;28;20054;-71
2021/10/01 00:18:04;;;;;;;0.40;0.40;;;;;;;5.34;84.24;101616.16;5035309;28;20095;-73
2021/10/01 00:20:30;;;;;;;0.40;0.40;;;;;;;5.35;84.74;101619.69;5035368;28;20494;-71
2021/10/01 00:22:56;;;;;;;0.40;0.40;;;;;;;5.32;84.78;101615.34;5036617;28;20409;-70
2021/10/01 00:25:21;;;;;;;0.40;0.40;;;;;;;5.30;84.94;101604.69;5034033;28;20145;-70
2021/10/01 00:27:47;;;;;;;0.40;0.40;;;;;;;5.38;84.57;101615.06;5017334;28;20049;-69
2021/10/01 00:30:13;;;;;;;0.40;0.40;;;;;;;5.33;84.88;101614.38;5017103;28;20139;-72
2021/10/01 00:32:39;;;;;;;0.40;0.40;;;;;;;5.38;84.93;101612.38;5032768;28;20128;-69
2021/10/01 00:35:05;;;;;;;0.40;0.40;;;;;;;5.37;84.64;101621.34;5016475;28;20493;-70
2021/10/01 00:37:30;;;;;;;0.40;0.40;;;;;;;5.43;84.69;101617.53;5033568;28;20439;-69
2021/10/01 00:39:56;;;;;;;0.40;0.40;;;;;;;5.42;84.34;101616.66;5015983;28;20080;-69
2021/10/01 00:42:22;;;;;;;0.40;0.40;;;;;;;5.44;84.66;101622.81;5015880;28;20065;-70
2021/10/01 00:44:49;;;;;;;0.40;0.40;;;;;;;5.42;84.35;101616.66;5033535;28;20053;-69
2021/10/01 00:47:15;;;;;;;0.40;0.40;;;;;;;5.42;83.95;101608.63;5015812;28;20054;-70
2021/10/01 00:49:41;;;;;;;0.40;0.40;;;;;;;5.44;84.36;101611.22;5015586;28;20053;-69
2021/10/01 00:52:08;;;;;;;0.40;0.40;;;;;;;5.41;84.26;101617.63;5015573;28;20141;-71
2021/10/01 00:54:37;;;;;;;0.40;0.40;;;;;;;5.42;84.25;101619.34;5015643;28;20057;-70
2021/10/01 00:57:03;;;;;;;0.40;0.40;;;;;;;5.52;83.76;101615.31;5032783;28;20058;-75
2021/10/01 00:59:29;;;;;;;0.40;0.40;;;;;;;5.59;83.64;101615.00;5035517;28;20053;-72
2021/10/01 01:01:55;;;;;;;0.40;0.40;;;;;;;5.67;83.41;101619.09;5033403;28;20057;-71
2021/10/01 01:04:21;;;;;;;0.40;0.40;;;;;;;5.72;82.98;101611.69;5033602;28;20132;-71
2021/10/01 01:07:02;;;;;;;0.40;0.40;;;;;;;5.78;82.50;101615.91;4998821;28;20199;-71
2021/10/01 01:09:30;;;;;;;0.40;0.40;;;;;;;5.80;82.11;101612.19;5015195;28;20049;-70
2021/10/01 01:12:08;;;;;;;0.40;0.40;;;;;;;5.70;81.92;101612.69;4998676;28;20064;-71
2021/10/01 01:14:56;;;;;;;0.40;0.40;;;;;;;5.66;82.27;101608.41;5048067;28;20053;-70
2021/10/01 01:17:26;;;;;;;0.40;0.40;;;;;;;5.68;82.89;101610.09;5031706;28;20054;-68
2021/10/01 01:20:13;;;;;;;0.40;0.40;;;;;;;5.68;82.98;101614.59;5015203;28;20132;-70
2021/10/01 01:22:42;;;;;;;0.40;0.40;;;;;;;5.65;82.25;101609.38;5030852;28;20065;-69
2021/10/01 01:25:41;;;;;;;0.40;0.40;;;;;;;5.63;82.33;101605.88;5031194;28;20100;-70
2021/10/01 01:28:28;;;;;;;0.40;0.40;;;;;;;5.68;81.85;101606.53;5030932;28;20137;-70
2021/10/01 01:30:55;;;;;;;0.40;0.40;;;;;;;5.66;81.95;101611.09;5031446;28;20133;-69
2021/10/01 01:33:22;;;;;;;0.40;0.40;;;;;;;5.63;81.48;101612.13;4998244;28;20140;-69
2021/10/01 01:35:56;;;;;;;0.40;0.40;;;;;;;5.61;81.84;101610.44;4998211;28;20485;-69
2021/10/01 01:38:31;;;;;;;0.40;0.40;;;;;;;5.67;81.72;101607.50;5047657;28;20077;-69
2021/10/01 01:40:59;;;;;;;0.40;0.40;;;;;;;5.62;81.95;101605.00;5014709;28;20466;-69
2021/10/01 01:43:27;;;;;;;0.40;0.40;;;;;;;5.62;81.95;101604.13;5015024;28;20166;-69
2021/10/01 01:45:53;;;;;;;0.40;0.40;;;;;;;5.60;82.09;101611.41;5015436;28;20049;-70
2021/10/01 01:48:19;;;;;;;0.40;0.40;;;;;;;5.56;82.74;101606.19;5015982;28;20453;-68
2021/10/01 01:50:46;;;;;;;0.40;0.40;;;;;;;5.61;82.69;101618.50;5030825;28;20103;-69
2021/10/01 01:53:12;;;;;;;0.40;0.40;;;;;;;5.62;82.06;101615.72;5014342;28;20061;-70
2021/10/01 01:55:39;;;;;;;0.40;0.40;;;;;;;5.62;81.97;101626.47;5014434;28;20090;-70
2021/10/01 01:58:05;;;;;;;0.40;0.40;;;;;;;5.60;82.22;101611.41;5014568;28;20057;-70
2021/10/01 02:01:04;;;;;;;0.50;0.50;;;;;;;5.62;81.98;101604.13;4998669;28;20435;-70
2021/10/01 02:03:32;;;;;;;0.40;0.40;;;;;;;5.64;82.04;101610.31;4997732;28;20157;-69
2021/10/01 02:06:09;;;;;;;0.40;0.40;;;;;;;5.61;81.73;101602.41;5015698;28;20052;-69
2021/10/01 02:08:37;;;;;;;0.40;0.40;;;;;;;5.65;81.93;101610.22;5014058;28;20571;-69
2021/10/01 02:11:04;;;;;;;0.40;0.40;;;;;;;5.60;81.88;101598.00;5030434;28;20045;-69
2021/10/01 02:13:31;;;;;;;0.40;0.40;;;;;;;5.60;81.95;101611.41;5014187;28;20530;-70
2021/10/01 02:16:11;;;;;;;0.40;0.40;;;;;;;5.59;81.92;101602.47;5015394;28;20504;-71
2021/10/01 02:18:41;;;;;;;0.40;0.40;;;;;;;5.64;82.36;101610.31;5014260;28;20050;-69
2021/10/01 02:21:08;;;;;;;0.40;0.40;;;;;;;5.55;82.23;101615.13;5046334;28;20136;-70
2021/10/01 02:23:35;;;;;;;0.40;0.40;;;;;;;5.56;82.50;101616.03;5014000;28;20206;-69
2021/10/01 02:28:58;;;;;;;0.40;0.40;;;;;;;5.51;82.04;101597.44;5030023;28;20050;-69
2021/10/01 02:31:29;;;;;;;0.40;0.40;;;;;;;5.45;81.88;101602.25;5029744;28;20045;-69
2021/10/01 02:33:57;;;;;;;;;;;;;;;5.53;81.61;101610.81;5030284;28;20057;-70
2021/10/01 02:36:23;;;;;;;0.40;0.40;;;;;;;5.48;81.95;101618.19;5030067;28;19932;-70
2021/10/01 02:38:49;;;;;;;0.40;0.40;;;;;;;5.41;82.08;101616.72;5029853;28;20093;-70
2021/10/01 02:41:15;;;;;;;0.38;0.38;;;;;;;5.33;83.03;101609.03;5046606;28;20057;-69
2021/10/01 02:43:40;;;;;;;0.40;0.40;;;;;;;5.25;83.15;101616.56;5013039;28;20061;-70
2021/10/01 02:46:06;;;;;;;0.40;0.40;;;;;;;5.22;83.40;101616.69;5030066;28;20065;-70
2021/10/01 02:48:35;;;;;;;0.40;0.40;;;;;;;5.24;83.44;101618.38;5029749;28;20084;-69
2021/10/01 02:51:03;;;;;;;0.40;0.40;;;;;;;5.15;83.18;101599.13;5046109;28;20061;-70
2021/10/01 02:53:50;;;;;;;0.40;0.40;;;;;;;5.16;83.42;101607.13;5013609;28;20198;-70
2021/10/01 02:56:22;;;;;;;0.40;0.40;;;;;;;5.16;83.85;101616.97;5029597;28;20052;-71
2021/10/01 02:58:53;;;;;;;0.40;0.40;;;;;;;5.14;83.53;101614.34;5029440;28;20505;-69
2021/10/01 03:01:20;;;;;;;0.40;0.40;;;;;;;5.12;83.90;101612.66;5013041;28;20049;-70
2021/10/01 03:03:48;;;;;;;0.40;0.40;;;;;;;5.14;84.17;101619.72;5046276;28;20057;-72
2021/10/01 03:06:20;;;;;;;0.40;0.40;;;;;;;5.29;83.41;101612.78;5013486;28;20064;-72
2021/10/01 03:08:50;;;;;;;0.40;0.40;;;;;;;5.26;83.08;101613.78;5030449;28;20056;-69
2021/10/01 03:11:18;;;;;;;0.40;0.40;;;;;;;5.20;83.60;101613.22;5031863;28;20046;-71
2021/10/01 03:13:46;;;;;;;0.40;0.40;;;;;;;5.22;83.37;101622.03;5013415;28;20481;-72
2021/10/01 03:16:13;;;;;;;0.40;0.40;;;;;;;5.11;83.53;101609.09;5032034;28;20058;-72
2021/10/01 03:18:39;;;;;;;0.40;0.40;;;;;;;5.13;83.52;101619.78;4999450;28;20107;-70
2021/10/01 03:21:07;;;;;;;0.40;0.40;;;;;;;5.08;83.73;101620.88;5049053;28;20061;-69
2021/10/01 03:23:38;;;;;;;0.40;0.40;;;;;;;5.10;83.92;101617.22;5016988;28;20050;-70
2021/10/01 03:26:03;;;;;;;0.40;0.40;;;;;;;5.05;83.54;101618.31;5032201;28;20048;-70
2021/10/01 03:28:30;;;;;;;0.40;0.40;;;;;;;5.08;83.77;101617.28;5031519;28;20059;-69
2021/10/01 03:30:55;;;;;;;0.40;0.40;;;;;;;5.05;84.01;101614.75;5031274;28;20103;-68
2021/10/01 03:33:27;;;;;;;0.40;0.40;;;;;;;5.13;84.09;101619.78;5032167;28;20053;-71
2021/10/01 03:35:53;;;;;;;0.40;0.40;;;;;;;5.11;83.99;101624.31;5048561;28;20077;-72
2021/10/01 03:38:19;;;;;;;0.40;0.40;;;;;;;5.08;83.83;101626.22;5014674;28;20072;-71
2021/10/01 03:40:47;;;;;;;0.40;0.40;;;;;;;5.02;84.04;101621.13;5031567;28;20049;-73
2021/10/01 03:43:14;;;;;;;0.40;0.40;;;;;;;4.98;84.09;101611.47;5032603;28;20045;-75
2021/10/01 03:45:42;;;;;;;0.40;0.40;;;;;;;5.05;84.27;101626.34;5034714;28;20075;-72
2021/10/01 03:48:08;;;;;;;0.40;0.40;;;;;;;5.12;83.65;101626.06;5053641;28;20057;-76
2021/10/01 03:50:50;;;;;;;0.40;0.40;;;;;;;5.10;84.04;101627.97;5050978;28;20092;-70
2021/10/01 03:53:17;;;;;;;0.40;0.40;;;;;;;5.02;84.22;101621.13;5037059;28;20144;-70
2021/10/01 03:55:43;;;;;;;0.40;0.40;;;;;;;4.99;84.15;101626.63;5034990;28;20049;-73
2021/10/01 03:58:10;;;;;;;0.40;0.40;;;;;;;4.94;84.73;101617.91;5034413;28;20136;-72
2021/10/01 04:00:37;;;;;;;0.40;0.40;;;;;;;4.90;84.61;101610.94;5034480;28;20651;-73
2021/10/01 04:03:03;;;;;;;0.40;0.40;;;;;;;4.97;84.34;101630.28;5034611;28;20062;-72
2021/10/01 04:05:38;;;;;;;0.40;0.40;;;;;;;4.93;84.69;101621.50;5018015;28;20060;-75
2021/10/01 04:08:09;;;;;;;0.40;0.40;;;;;;;4.90;84.84;101621.66;5018037;28;20053;-72
2021/10/01 04:10:39;;;;;;;0.40;0.40;;;;;;;4.99;84.69;101631.97;5035195;28;20088;-71
2021/10/01 04:13:09;;;;;;;0.40;0.40;;;;;;;4.96;84.90;101628.56;5051912;28;20057;-73
2021/10/01 04:15:41;;;;;;;0.40;0.40;;;;;;;5.05;84.52;101626.34;5003039;28;20060;-71
2021/10/01 04:18:07;;;;;;;0.40;0.40;;;;;;;5.14;84.15;101624.19;5052414;28;20057;-73
2021/10/01 04:20:36;;;;;;;0.40;0.40;;;;;;;5.13;83.84;101617.09;5051506;28;20064;-74
2021/10/01 04:23:02;;;;;;;0.40;0.40;;;;;;;5.05;83.78;101615.63;5034975;28;20143;-75
2021/10/01 04:25:46;;;;;;;0.40;0.40;;;;;;;4.97;84.68;101609.75;5017775;28;20135;-74
2021/10/01 04:28:12;;;;;;;0.40;0.40;;;;;;;5.05;84.19;101604.03;5002368;28;20116;-72
2021/10/01 04:30:50;;;;;;;0.40;0.40;;;;;;;5.15;83.85;101615.22;5017855;28;20056;-75
2021/10/01 04:33:21;;;;;;;0.40;0.40;;;;;;;5.08;84.30;101607.47;5049068;28;20056;-73
2021/10/01 04:35:48;;;;;;;0.40;0.40;;;;;;;5.17;83.62;101616.03;5049324;28;20449;-72
2021/10/01 04:38:15;;;;;;;0.40;0.40;;;;;;;5.09;83.90;101608.31;5015839;28;20513;-72
2021/10/01 04:40:41;;;;;;;0.40;0.40;;;;;;;5.04;83.91;101616.56;5048540;28;20143;-73
2021/10/01 04:43:07;;;;;;;0.40;0.40;;;;;;;5.04;83.87;101613.00;5032177;28;20235;-74
2021/10/01 04:45:38;;;;;;;0.40;0.40;;;;;;;5.04;83.81;101611.19;5048224;28;20045;-72
2021/10/01 04:48:05;;;;;;;0.40;0.40;;;;;;;5.19;83.49;101616.81;4998952;28;20515;-73
2021/10/01 04:50:33;;;;;;;0.40;0.40;;;;;;;5.06;83.37;101622.72;5031982;28;20477;-74
2021/10/01 04:53:00;;;;;;;0.40;0.40;;;;;;;5.04;83.36;101635.31;5032120;28;20104;-74
2021/10/01 04:55:28;;;;;;;0.50;0.50;;;;;;;5.02;83.46;101626.47;5030691;28;20047;-73
2021/10/01 04:57:54;;;;;;;0.40;0.40;;;;;;;5.04;83.64;101627.28;5014796;28;20053;-73
2021/10/01 05:00:49;;;;;;;0.40;0.40;;;;;;;5.07;83.91;101629.81;4962622;28;20054;-71
2021/10/01 05:03:33;;;;;;;0.40;0.40;;;;;;;5.11;83.59;101629.69;5026458;28;20049;-73
2021/10/01 05:06:18;;;;;;;0.40;0.40;;;;;;;5.16;83.32;101627.69;5011058;28;20064;-74
2021/10/01 05:09:10;;;;;;;0.40;0.40;;;;;;;5.27;82.81;101628.97;4963082;28;20446;-74
2021/10/01 05:11:54;;;;;;;0.40;0.40;;;;;;;5.41;82.15;101627.44;5018806;28;20060;-72
2021/10/01 05:14:39;;;;;;;0.40;0.40;;;;;;;5.50;81.28;101644.00;5047896;28;20053;-71
2021/10/01 05:17:28;;;;;;;0.40;0.40;;;;;;;5.48;81.15;101637.81;5004989;28;20064;-71
2021/10/01 05:20:13;;;;;;;0.50;0.50;;;;;;;5.48;81.35;101632.47;4987394;28;20068;-72
2021/10/01 05:22:51;;;;;;;0.40;0.40;;;;;;;5.45;80.97;101635.31;4988164;28;20102;-72
2021/10/01 05:25:17;;;;;;;0.40;0.40;;;;;;;5.48;81.04;101640.50;5010654;28;20057;-75
2021/10/01 05:27:43;;;;;;;0.50;0.50;;;;;;;5.51;80.55;101637.69;5028958;28;20084;-74
2021/10/01 05:30:09;;;;;;;0.40;0.40;;;;;;;5.59;80.83;101636.47;5028114;28;20077;-77
2021/10/01 05:32:35;;;;;;;0.40;0.40;;;;;;;5.60;80.66;101639.09;5035961;28;20084;-75
2021/10/01 05:35:03;;;;;;;0.40;0.40;;;;;;;5.62;80.15;101631.84;5003747;28;20084;-72
2021/10/01 05:37:29;;;;;;;0.40;0.40;;;;;;;5.69;79.70;101640.47;5013396;28;20092;-72
2021/10/01 05:39:56;;;;;;;0.40;0.40;;;;;;;5.75;79.89;101626.78;5006768;28;20130;-72
2021/10/01 05:42:22;;;;;;;0.50;0.50;;;;;;;5.76;79.53;101631.19;5004554;28;20050;-73
2021/10/01 05:44:48;;;;;;;0.40;0.40;;;;;;;5.63;79.80;101640.75;4988255;28;20064;-73
2021/10/01 05:47:34;;;;;;;0.50;0.50;;;;;;;5.55;79.97;101625.00;5016526;28;20053;-73
2021/10/01 05:50:22;;;;;;;0.50;0.50;;;;;;;5.63;80.48;101638.06;4954354;28;20152;-74
2021/10/01 05:53:14;;;;;;;0.40;0.40;;;;;;;5.61;80.63;101629.22;5049244;28;20657;-73
2021/10/01 05:56:11;;;;;;;0.40;0.40;;;;;;;5.48;80.48;101624.41;4991523;28;20050;-73
2021/10/01 05:59:12;;;;;;;0.50;0.50;;;;;;;5.67;80.28;101637.88;4988497;28;20503;-72
2021/10/01 06:01:38;;;;;;;0.40;0.40;;;;;;;5.84;79.24;101628.16;5009695;28;20080;-72
2021/10/01 06:04:06;;;;;;;0.40;0.40;;;;;;;5.85;79.16;101633.47;4997014;28;20084;-74
2021/10/01 06:06:33;;;;;;;0.40;0.40;;;;;;;5.96;78.97;101636.53;5014767;28;20418;-71
2021/10/01 06:08:58;;;;;;;0.40;0.40;;;;;;;6.03;78.66;101635.31;5013050;28;20138;-69
2021/10/01 06:11:24;;;;;;;0.40;0.40;;;;;;;6.11;78.32;101631.38;5022179;28;20470;-70
2021/10/01 06:13:50;;;;;;;0.40;0.40;;;;;;;6.13;78.08;101643.78;5011479;28;20080;-71
2021/10/01 06:16:16;;;;;;;0.40;0.40;;;;;;;6.16;78.16;101642.75;5041242;28;20053;-72
2021/10/01 06:18:42;;;;;;;0.40;0.40;;;;;;;6.24;77.34;101640.56;5020612;28;20064;-73
2021/10/01 06:21:08;;;;;;;0.40;0.40;;;;;;;6.27;76.69;101637.75;4997318;28;20497;-73
2021/10/01 06:23:34;;;;;;;0.40;0.40;;;;;;;6.26;77.00;101647.63;5013004;28;20458;-72
2021/10/01 06:26:06;;;;;;;0.40;0.40;;;;;;;6.23;76.46;101638.84;4964689;28;20057;-75
2021/10/01 06:28:32;;;;;;;0.40;0.40;;;;;;;6.29;76.37;101646.63;4989352;28;20096;-72
2021/10/01 06:31:01;;;;;;;0.40;0.40;;;;;;;6.33;75.41;101634.78;5012362;28;20060;-72
2021/10/01 06:33:27;;;;;;;0.40;0.40;;;;;;;6.25;75.04;101645.00;5011717;28;20144;-72
2021/10/01 06:35:53;;;;;;;0.50;0.50;;;;;;;6.27;74.82;101645.81;5013208;28;20128;-72
2021/10/01 06:38:19;;;;;;;0.45;0.45;;;;;;;6.25;74.98;101650.38;5013629;28;20491;-72
2021/10/01 06:40:44;;;;;;;0.40;0.40;;;;;;;6.35;74.86;101654.34;4980839;28;20046;-73
2021/10/01 06:43:12;;;;;;;0.40;0.40;;;;;;;6.32;74.93;101649.13;5028819;28;20073;-72
2021/10/01 06:45:40;;;;;;;0.40;0.40;;;;;;;6.17;75.27;101649.88;5029182;28;20053;-71
2021/10/01 06:48:20;;;;;;;0.40;0.40;;;;;;;5.93;76.37;101654.59;5013001;28;20048;-73
2021/10/01 08:20:35;;;;;;;0.40;0.40;;;;;;;6.12;71.47;101655.47;5023430;28;20136;-72
2021/10/01 08:23:01;;;;;;;0.50;0.50;;;;;;;6.24;71.36;101654.88;5008241;28;20048;-72
2021/10/01 08:25:27;;;;;;;0.40;0.40;;;;;;;6.37;71.30;101657.84;4979605;28;20057;-72
2021/10/01 08:27:53;;;;;;;0.50;0.50;;;;;;;6.21;71.25;101643.41;4996840;28;20619;-72
2021/10/01 08:30:20;;;;;;;0.40;0.40;;;;;;;6.38;70.83;101648.84;5015760;28;20517;-72
2021/10/01 08:32:46;;;;;;;0.40;0.40;;;;;;;6.56;70.24;101647.06;5018617;28;20126;-72
2021/10/01 08:35:12;;;;;;;0.40;0.40;;;;;;;6.80;69.63;101655.72;5033934;28;20507;-72
2021/10/01 08:37:40;;;;;;;0.50;0.50;;;;;;;6.85;69.46;101656.34;5014241;28;20049;-71
2021/10/01 08:40:07;;;;;;;0.50;0.50;;;;;;;6.86;69.66;101644.63;4999021;28;20103;-71
2021/10/01 08:42:52;;;;;;;0.40;0.40;;;;;;;6.93;68.85;101656.81;5014966;28;20045;-71
2021/10/01 08:45:19;;;;;;;0.40;0.40;;;;;;;6.69;69.44;101649.97;5028488;28;20063;-68
2021/10/01 08:47:45;;;;;;;0.40;0.40;;;;;;;6.70;69.75;101654.44;5024667;28;20160;-76
2021/10/01 08:50:15;;;;;;;0.40;0.40;;;;;;;6.47;69.72;101659.13;4990965;28;20072;-73
2021/10/01 08:52:42;;;;;;;0.40;0.40;;;;;;;6.57;69.81;101651.47;4999510;28;20236;-74
2021/10/01 08:55:09;;;;;;;0.47;0.47;;;;;;;6.78;68.76;101651.34;5033935;28;20061;-74
2021/10/01 08:57:34;;;;;;;0.40;0.40;;;;;;;6.57;69.05;101648.78;4998214;28;20507;-75
2021/10/01 09:00:03;;;;;;;0.50;0.50;;;;;;;6.71;68.84;101650.78;5017282;28;20096;-73
2021/10/01 09:02:29;;;;;;;0.50;0.50;;;;;;;6.91;68.23;101655.16;5030569;28;20053;-72
2021/10/01 09:04:57;;;;;;;0.40;0.40;;;;;;;6.86;68.45;101650.00;5015477;28;20458;-73
2021/10/01 09:07:24;;;;;;;0.40;0.40;;;;;;;6.70;68.80;101654.44;5049037;28;20055;-73
2021/10/01 09:09:54;;;;;;;0.40;0.40;;;;;;;6.69;69.13;101663.41;5013746;28;20049;-73
2021/10/01 09:12:22;;;;;;;0.43;0.43;;;;;;;6.79;68.80;101653.94;5031639;28;20049;-73
2021/10/01 09:14:52;;;;;;;0.40;0.40;;;;;;;6.47;69.58;101653.78;5031027;28;20057;-73
2021/10/01 09:17:23;;;;;;;0.40;0.40;;;;;;;6.40;69.81;101657.69;5031827;28;20053;-74
2021/10/01 09:19:50;;;;;;;0.40;0.40;;;;;;;6.38;68.67;101646.16;5028795;28;20072;-74
2021/10/01 09:22:36;;;;;;;0.50;0.50;;;;;;;6.35;69.36;101648.97;5041350;28;20056;-74
2021/10/01 09:25:19;;;;;;;0.40;0.40;;;;;;;6.32;69.78;101649.13;5046341;28;20136;-74
2021/10/01 09:27:50;;;;;;;0.50;0.50;;;;;;;6.37;69.18;101654.28;5001433;28;20055;-74
2021/10/01 09:30:20;;;;;;;0.40;0.40;;;;;;;6.50;69.92;101656.28;5014857;28;20077;-74
2021/10/01 09:33:06;;;;;;;0.50;0.50;;;;;;;6.76;69.32;101654.09;5015063;28;20049;-79
2021/10/01 09:35:33;;;;;;;0.50;0.50;;;;;;;6.61;69.16;101654.88;4997961;28;20064;-74
2021/10/01 09:38:07;;;;;;;0.47;0.47;;;;;;;6.68;69.41;101656.31;5016848;28;20448;-74
2021/10/01 09:40:34;;;;;;;0.50;0.50;;;;;;;6.82;68.97;101642.19;4975146;28;20049;-74
2021/10/01 09:43:00;;;;;;;0.40;0.40;;;;;;;6.68;69.16;101651.81;4997005;28;20095;-74
2021/10/01 09:45:26;;;;;;;0.40;0.40;;;;;;;6.82;69.03;101652.94;4997706;28;20089;-74
2021/10/01 09:47:52;;;;;;;0.40;0.40;;;;;;;6.79;69.05;101656.63;5014613;28;20053;-74
2021/10/01 09:50:27;;;;;;;0.40;0.40;;;;;;;6.77;69.52;101655.88;5014835;28;20144;-74
2021/10/01 09:52:59;;;;;;;0.50;0.50;;;;;;;6.76;68.81;101648.72;5037119;28;20591;-73
2021/10/01 09:55:34;;;;;;;0.40;0.40;;;;;;;6.91;69.50;101653.34;4985334;28;20144;-76
2021/10/01 09:58:09;;;;;;;0.50;0.50;;;;;;;7.09;68.50;101656.03;5001739;28;20050;-72
2021/10/01 10:00:53;;;;;;;0.50;0.50;;;;;;;7.10;67.82;101655.09;5011996;28;20457;-72
2021/10/01 10:03:22;;;;;;;0.40;0.40;;;;;;;7.21;67.74;101656.25;5020593;28;20057;-73
2021/10/01 10:06:04;;;;;;;0.40;0.40;;;;;;;7.28;67.74;101654.13;5021078;28;20049;-76
2021/10/01 10:08:31;;;;;;;0.50;0.50;;;;;;;7.12;67.77;101651.34;4998330;28;20144;-74
2021/10/01 10:10:58;;;;;;;0.40;0.40;;;;;;;7.05;68.05;101649.94;5019330;28;20053;-72
2021/10/01 10:13:51;;;;;;;0.50;0.50;;;;;;;7.16;68.02;101652.94;5018792;28;20145;-71
2021/10/01 10:16:22;;;;;;;0.40;0.40;;;;;;;7.10;67.33;101649.72;5032570;28;20157;-75
2021/10/01 10:18:52;;;;;;;0.40;0.40;;;;;;;6.89;68.58;101655.22;4986751;28;20556;-74
2021/10/01 10:21:19;;;;;;;0.40;0.40;;;;;;;6.67;69.27;101649.22;4999216;28;20366;-75
2021/10/01 10:23:45;;;;;;;0.40;0.40;;;;;;;6.69;69.69;101644.59;5022485;28;20539;-71
2021/10/01 10:26:12;;;;;;;0.50;0.50;;;;;;;6.63;70.21;101647.63;5013370;28;20131;-72
2021/10/01 10:28:40;;;;;;;0.50;0.50;;;;;;;6.75;70.06;101647.88;5012030;28;20045;-72
2021/10/01 10:31:06;;;;;;;0.50;0.50;;;;;;;6.84;70.09;101657.31;5039106;28;20060;-72
2021/10/01 10:33:42;;;;;;;0.40;0.40;;;;;;;6.85;69.66;101648.28;5040309;28;20362;-73
2021/10/01 10:36:27;;;;;;;0.40;0.40;;;;;;;6.85;69.30;101659.03;4996595;28;20049;-72
2021/10/01 10:39:19;;;;;;;0.40;0.40;;;;;;;6.85;70.11;101659.03;5032070;28;20076;-72
2021/10/01 10:41:48;;;;;;;0.40;0.40;;;;;;;6.84;69.77;101646.53;5031386;28;20049;-72
2021/10/01 10:44:16;;;;;;;0.50;0.50;;;;;;;6.71;70.73;101659.72;5017943;28;20076;-74
2021/10/01 10:46:47;;;;;;;0.47;0.47;;;;;;;6.57;71.43;101647.91;4994514;28;20053;-74
2021/10/01 10:49:22;;;;;;;0.50;0.50;;;;;;;6.55;71.67;101649.84;5029828;28;20057;-73
2021/10/01 10:51:59;;;;;;;0.50;0.50;;;;;;;6.50;71.60;101650.91;5032790;28;20057;-72
2021/10/01 10:54:26;;;;;;;0.50;0.50;;;;;;;6.44;72.05;101653.06;5031698;28;20134;-72
2021/10/01 10:57:21;;;;;;;0.40;0.40;;;;;;;6.43;72.23;101657.53;5003061;28;20057;-74
2021/10/01 10:59:55;;;;;;;0.40;0.40;;;;;;;6.31;72.18;101668.88;4988519;28;20049;-73
2021/10/01 11:02:33;;;;;;;0.50;0.50;;;;;;;6.45;72.18;101658.34;5043670;28;20143;-74
2021/10/01 11:05:22;;;;;;;0.50;0.50;;;;;;;6.35;72.42;101659.72;5029420;28;20077;-73
2021/10/01 11:07:52;;;;;;;0.50;0.50;;;;;;;6.45;71.68;101650.28;4969945;28;20464;-73
2021/10/01 11:10:49;;;;;;;0.40;0.40;;;;;;;6.42;72.11;101650.41;5013871;28;20060;-73
2021/10/01 11:13:18;;;;;;;0.40;0.40;;;;;;;6.65;71.28;101651.09;4995914;28;20421;-73
2021/10/01 11:16:09;;;;;;;0.40;0.40;;;;;;;6.42;71.89;101658.47;4980519;28;20049;-72
2021/10/01 11:18:44;;;;;;;0.40;0.40;;;;;;;6.38;71.84;101648.84;5030663;28;20064;-72
2021/10/01 11:21:27;;;;;;;0.40;0.40;;;;;;;6.50;72.22;101641.97;5049617;28;20210;-72
2021/10/01 11:23:58;;;;;;;0.40;0.40;;;;;;;6.38;72.23;101654.19;5034608;28;20067;-72
2021/10/01 11:26:26;;;;;;;0.40;0.40;;;;;;;6.21;72.97;101648.78;5012964;28;20091;-72
2021/10/01 11:28:51;;;;;;;0.43;0.43;;;;;;;6.13;72.80;101648.28;5035460;28;20398;-72
2021/10/01 11:31:17;;;;;;;0.40;0.40;;;;;;;6.13;72.88;101648.28;5031726;28;20067;-73
2021/10/01 11:33:51;;;;;;;0.50;0.50;;;;;;;6.17;73.54;101649.88;5023524;28;20508;-72
2021/10/01 11:36:17;;;;;;;;;;;;;;;6.16;73.32;101645.44;5031630;28;20161;-72
2021/10/01 11:38:42;;;;;;;0.45;0.45;;;;;;;6.15;73.24;101651.78;5036139;28;20389;-72
2021/10/01 11:41:11;;;;;;;0.40;0.40;;;;;;;6.14;72.69;101644.63;5013579;28;20060;-72
2021/10/01 11:43:57;;;;;;;0.40;0.40;;;;;;;6.07;72.77;101645.88;5030053;28;20193;-72
2021/10/01 11:46:29;;;;;;;0.40;0.40;;;;;;;6.11;73.21;101644.81;4980111;28;20061;-72
2021/10/01 11:48:55;;;;;;;0.40;0.40;;;;;;;6.17;72.63;101644.50;5004682;28;20057;-72
2021/10/01 11:51:21;;;;;;;0.40;0.40;;;;;;;5.99;72.98;101633.69;5048741;28;20183;-72
2021/10/01 11:53:46;;;;;;;0.50;0.50;;;;;;;5.97;73.23;101627.53;5013022;28;20247;-73
2021/10/01 11:56:13;;;;;;;0.40;0.40;;;;;;;5.94;73.59;101627.69;5012491;28;20044;-73
2021/10/01 11:58:39;;;;;;;0.40;0.40;;;;;;;6.01;73.75;101625.56;5028725;28;20069;-74
2021/10/01 12:01:14;;;;;;;0.50;0.50;;;;;;;6.07;73.58;101627.97;5015177;28;20060;-75
2021/10/01 12:03:55;;;;;;;0.40;0.40;;;;;;;6.10;73.27;101626.94;5029851;28;20053;-73
2021/10/01 12:06:26;;;;;;;0.40;0.40;;;;;;;6.18;73.02;101627.44;5033455;28;20491;-72
2021/10/01 12:08:54;;;;;;;0.50;0.50;;;;;;;6.27;72.10;101624.31;5038389;28;20066;-72
2021/10/01 12:11:25;;;;;;;0.40;0.40;;;;;;;6.21;73.00;101629.97;5000158;28;20052;-73
2021/10/01 12:13:51;;;;;;;0.40;0.40;;;;;;;6.18;73.04;101630.13;4999911;28;20478;-73
2021/10/01 12:16:17;;;;;;;0.40;0.40;;;;;;;6.39;72.63;101621.00;5015674;28;20111;-73
2021/10/01 12:18:54;;;;;;;0.40;0.40;;;;;;;6.28;72.29;101621.53;5031707;28;20061;-72
2021/10/01 12:21:22;;;;;;;0.40;0.40;;;;;;;6.18;72.45;101619.38;5017593;28;20045;-73
2021/10/01 12:23:55;;;;;;;0.40;0.40;;;;;;;6.25;72.60;101620.81;5016859;28;20167;-73
2021/10/01 12:26:33;;;;;;;0.40;0.40;;;;;;;6.29;72.67;101619.75;5016324;28;20061;-74
2021/10/01 12:29:16;;;;;;;0.40;0.40;;;;;;;6.45;71.81;101609.09;5016930;28;20505;-74
2021/10/01 12:31:53;;;;;;;0.40;0.40;;;;;;;6.54;71.24;101619.38;5017588;28;20207;-75
2021/10/01 12:34:32;;;;;;;0.40;0.40;;;;;;;6.62;71.53;101608.25;5033129;28;20053;-74
2021/10/01 12:37:04;;;;;;;0.40;0.40;;;;;;;6.68;70.54;101616.00;5027537;28;20049;-73
2021/10/01 12:39:32;;;;;;;0.50;0.50;;;;;;;6.68;70.33;101602.56;5017581;28;20056;-73
2021/10/01 12:42:00;;;;;;;0.40;0.40;;;;;;;6.69;70.16;101604.28;5033622;28;20520;-74
2021/10/01 12:44:27;;;;;;;0.40;0.40;;;;;;;6.76;69.83;101600.34;5051259;28;20136;-73
2021/10/01 12:46:55;;;;;;;0.40;0.40;;;;;;;6.81;69.63;101590.25;5053216;28;20147;-74
2021/10/01 12:49:29;;;;;;;0.40;0.40;;;;;;;6.79;69.64;101594.81;5002654;28;20057;-73
2021/10/01 12:52:19;;;;;;;0.50;0.50;;;;;;;6.69;70.20;101588.16;5032352;28;20045;-73
2021/10/01 12:54:47;;;;;;;0.40;0.40;;;;;;;6.71;69.94;101594.34;5014530;28;20049;-74
2021/10/01 12:57:14;;;;;;;0.40;0.40;;;;;;;6.71;70.68;101594.34;5015527;28;20128;-70
2021/10/01 12:59:41;;;;;;;0.40;0.40;;;;;;;6.65;70.74;101586.59;4998021;28;20063;-74
2021/10/01 13:02:15;;;;;;;0.40;0.40;;;;;;;6.47;71.10;101589.28;5014772;28;20078;-74
2021/10/01 13:04:48;;;;;;;;;;;;;;;6.47;71.33;101594.66;5033111;28;20389;-74
2021/10/01 13:07:25;;;;;;;0.40;0.40;;;;;;;6.30;72.43;101591.94;5030905;28;20000;-72
2021/10/01 13:09:55;;;;;;;0.40;0.40;;;;;;;6.27;72.18;101594.78;5030131;28;20085;-74
2021/10/01 13:12:32;;;;;;;0.40;0.40;;;;;;;6.15;72.09;101587.31;5034273;28;20061;-73
2021/10/01 13:15:11;;;;;;;0.40;0.40;;;;;;;6.21;72.70;101578.94;5029911;28;20049;-74
2021/10/01 13:17:36;;;;;;;0.40;0.40;;;;;;;6.25;72.27;101589.50;5032695;28;20055;-73
2021/10/01 13:20:03;;;;;;;0.40;0.40;;;;;;;6.25;72.47;101588.59;5017105;28;20061;-73
2021/10/01 13:22:51;;;;;;;0.40;0.40;;;;;;;6.18;72.84;101582.69;5032425;28;20088;-73
2021/10/01 13:25:25;;;;;;;0.40;0.40;;;;;;;6.14;72.84;101574.81;5017149;28;20060;-73